Latest Coastal Weather Observations for Cairns

IDQ60701

Issued at 9:02 am EST Thursday 24 August 2017 (issued every 10 minutes, with the page automatically refreshed every 10 minutes)

About coastal observations | Map of coastal stations | Coastal observations for QLD | Marine services | Other Formats
Station Details ID: 031011 Name: CAIRNS AERO Lat: -16.87 Lon: 145.75 Height: 2.22 m
Data from the previous 72 hours. | See also: Recent months at Cairns
Date/Time
EST
Temp
°C
Wind Pressure Rain since
9am
mm
Weather Cloud Vis
km
Sea
Height
m
Swell
Dir  Spd
kts
Gust
kts
hPa Trend Height
m
Period
s
Dir
24/09:00am 24.4 SE 8 9 1018.1 F 0.0 - - 55 - - - -
24/08:30am 22.6 SE 9 10 1017.8 - 0.0 - Mostly clear 10 - - - -
24/08:00am 21.2 SE 8 9 1017.9 - 0.0 - Mostly clear 10 - - - -
24/07:30am 19.6 SSE 6 9 1017.8 - 0.0 - Mostly clear 10 - - - -
24/07:00am 18.6 SE 9 10 1017.6 - 0.0 - Mostly clear 10 - - - -
24/06:30am 17.1 SW 3 4 1017.2 - 0.0 - Mostly clear 10 - - - -
24/06:00am 17.5 SSW 4 8 1016.9 F 0.0 - - 10 - - - -
24/05:30am 17.8 SW 4 7 1016.7 - 0.0 - - 10 - - - -
24/05:00am 18.1 SSE 9 12 1016.7 - 0.0 - - 10 - - - -
24/04:30am 18.3 SSE 11 14 1016.5 - 0.0 - - 10 - - - -
24/04:00am 17.6 W 3 4 1016.5 - 0.0 - - 10 - - - -
24/03:30am 18.1 SSE 4 7 1016.6 - 0.0 - - 10 - - - -
24/03:00am 17.4 CALM 0 3 1016.9 S 0.0 - Mostly clear 10 - - - -
24/02:30am 18.1 W 3 4 1017.1 - 0.0 - Mostly clear 10 - - - -
24/02:00am 19.0 S 3 6 1017.3 - 0.0 - Mostly clear 10 - - - -
24/01:30am 19.0 SSE 8 9 1017.5 - 0.0 - Mostly clear 10 - - - -
24/01:00am 18.6 SSE 4 6 1017.6 - 0.0 - Mostly clear 10 - - - -
24/12:30am 17.7 CALM 0 4 1017.8 - 0.0 - Mostly clear 10 - - - -
24/12:00am 18.5 CALM 0 0 1018.1 R 0.0 - Mostly clear 10 - - - -
 
Date/Time
EST
Temp
°C
Wind Pressure Rain since
9am
mm
Weather Cloud Vis
km
Sea
Height
m
Swell
Dir  Spd
kts
Gust
kts
hPa Trend Height
m
Period
s
Dir
23/11:30pm 19.6 SE 5 6 1018.1 - 0.0 - Mostly clear 10 - - - -
23/11:00pm 20.5 SSE 5 6 1018.2 - 0.0 - Mostly clear 10 - - - -
23/10:30pm 21.1 SE 7 8 1018.1 - 0.0 - Mostly clear 10 - - - -
23/10:00pm 20.8 SE 6 8 1018.0 - 0.0 - Mostly clear 10 - - - -
23/09:30pm 21.6 SSE 5 7 1018.0 - 0.0 - Mostly clear 10 - - - -
23/09:00pm 21.6 S 5 7 1018.0 F 0.0 - Mostly clear 10 - - - -
23/08:30pm 21.6 SSE 6 8 1018.0 - 0.0 - Mostly clear 10 - - - -
23/08:00pm 21.7 SSE 7 8 1017.7 - 0.0 - Mostly clear 10 - - - -
23/07:30pm 22.3 SSE 7 9 1017.5 - 0.0 - Mostly clear 10 - - - -
23/07:00pm 21.5 SSE 4 6 1017.3 - 0.0 - Mostly clear 10 - - - -
23/06:30pm 22.9 E 7 10 1017.1 - 0.0 - Mostly clear 10 - - - -
23/06:00pm 24.0 E 8 11 1016.9 S 0.0 - Mostly clear 10 - - - -
23/05:30pm 24.8 ENE 9 12 1016.6 - 0.0 - Mostly clear 10 - - - -
23/05:00pm 25.4 ENE 10 12 1016.4 - 0.0 - Mostly clear 10 - - - -
23/04:30pm 26.1 E 10 13 1016.0 - 0.0 - Mostly clear 10 - - - -
23/04:00pm 26.6 E 12 15 1016.0 - 0.0 - Mostly clear 10 - - - -
23/03:30pm 27.0 E 13 15 1016.1 - 0.0 - Mostly clear 10 - - - -
23/03:00pm 27.2 E 13 17 1016.3 R 0.0 - Mostly clear 10 - - - -
23/02:30pm 27.3 ENE 14 17 1016.6 - 0.0 - Mostly clear 10 - - - -
23/02:00pm 27.4 E 14 17 1016.8 - 0.0 - Mostly clear 10 - - - -
23/01:30pm 27.5 ENE 11 16 1017.0 - 0.0 - Mostly clear 10 - - - -
23/01:00pm 27.6 E 10 15 1017.3 - 0.0 - Mostly clear 10 - - - -
23/12:30pm 28.4 ESE 11 15 1017.8 - 0.0 - Mostly clear 10 - - - -
23/12:00pm 27.8 E 11 16 1018.1 F 0.0 - Mostly clear 10 - - - -
23/11:30am 26.7 ESE 9 14 1018.6 - 0.0 - Mostly clear 10 - - - -
23/11:00am 27.0 SE 9 15 1019.1 - 0.0 - Mostly clear 10 - - - -
23/10:30am 26.8 SE 8 15 1019.5 - 0.0 - Mostly clear 10 - - - -
23/10:00am 26.2 SSE 9 13 1019.6 - 0.0 - Mostly clear 10 - - - -
23/09:30am 24.8 SSE 9 14 1019.5 - 0.0 - Mostly clear 10 - - - -
23/09:00am 24.7 S 9 14 1019.2 S 0.0 - Mostly clear 10 - - - -
23/08:30am 23.0 SE 10 13 1019.0 - 0.0 - Mostly clear 10 - - - -
23/08:00am 21.2 SE 10 11 1018.7 - 0.0 - Mostly clear 10 - - - -
23/07:30am 19.5 SE 11 13 1018.5 - 0.0 - Mostly clear 10 - - - -
23/07:00am 19.4 SE 10 13 1018.3 - 0.0 - Mostly clear 10 - - - -
23/06:30am 18.7 SE 8 12 1017.9 - 0.0 - Mostly clear 10 - - - -
23/06:00am 18.4 SE 7 9 1017.6 F 0.0 - Mostly clear 10 - - - -
23/05:30am 18.6 SSE 5 9 1017.5 - 0.0 - Mostly clear 10 - - - -
23/05:00am 19.0 SE 9 11 1017.7 - 0.0 - Mostly clear 10 - - - -
23/04:30am 19.2 SE 7 11 1017.6 - 0.0 - Mostly clear 10 - - - -
23/04:00am 19.0 SE 7 9 1017.5 - 0.0 - Mostly clear 10 - - - -
23/03:30am 19.5 SE 7 10 1017.5 - 0.0 - Mostly clear 10 - - - -
23/03:00am 19.9 SE 9 11 1017.5 F 0.0 - Mostly cloudy 10 - - - -
23/02:30am 19.9 SE 11 14 1017.6 - 0.0 - Mostly clear 10 - - - -
23/02:00am 21.6 SSW 3 7 1017.9 - 0.0 - Mostly clear 10 - - - -
23/01:30am 19.7 SE 9 11 1018.2 - 0.0 - Mostly clear 10 - - - -
23/01:00am 19.8 SE 8 10 1018.4 - 0.0 - Mostly clear 10 - - - -
23/12:30am 21.7 S 5 8 1018.6 - 0.0 - Mostly clear 10 - - - -
23/12:00am 21.1 SSE 5 8 1018.8 F 0.0 - Mostly clear 10 - - - -
 
Date/Time
EST
Temp
°C
Wind Pressure Rain since
9am
mm
Weather Cloud Vis
km
Sea
Height
m
Swell
Dir  Spd
kts
Gust
kts
hPa Trend Height
m
Period
s
Dir
22/11:30pm 21.7 S 7 11 1018.8 - 0.0 - Mostly clear 10 - - - -
22/11:00pm 21.5 S 7 11 1018.9 - 0.0 - Mostly clear 10 - - - -
22/10:30pm 21.5 S 7 10 1019.0 - 0.0 - Mostly clear 10 - - - -
22/10:00pm 21.5 SSE 7 9 1019.0 - 0.0 - Mostly clear 10 - - - -
22/09:30pm 21.5 S 6 10 1019.1 - 0.0 - Mostly clear 10 - - - -
22/09:00pm 21.4 S 7 10 1019.0 R 0.0 - Mostly clear 10 - - - -
22/08:30pm 21.6 S 6 9 1018.9 - 0.0 - Mostly clear 10 - - - -
22/08:00pm 21.6 S 6 9 1018.7 - 0.0 - Mostly clear 10 - - - -
22/07:30pm 21.6 SSE 6 8 1018.2 - 0.0 - Mostly clear 10 - - - -
22/07:00pm 21.2 SSE 5 6 1017.7 - 0.0 - Mostly clear 10 - - - -
22/06:30pm 21.7 SSE 4 6 1017.2 - 0.0 - Mostly clear 10 - - - -
22/06:00pm 23.2 ESE 8 12 1016.8 R 0.0 - Mostly clear 10 - - - -
22/05:30pm 24.3 E 9 13 1016.4 - 0.0 - Mostly clear 10 - - - -
22/05:00pm 25.1 ENE 9 13 1016.0 - 0.0 - Mostly clear 10 - - - -
22/04:30pm 25.6 ENE 11 15 1015.8 - 0.0 - Mostly clear 10 - - - -
22/04:00pm 26.2 NE 11 17 1015.4 - 0.0 - Mostly clear 10 - - - -
22/03:30pm 26.8 ENE 12 15 1015.4 - 0.0 - Mostly clear 10 - - - -
22/03:00pm 26.9 NE 11 15 1015.3 R 0.0 - Mostly clear 10 - - - -
22/02:30pm 26.9 ENE 13 17 1015.5 - 0.0 - Mostly clear 10 - - - -
22/02:00pm 27.5 ENE 12 15 1015.6 - 0.0 - Mostly clear 10 - - - -
22/01:30pm 26.9 ENE 12 15 1015.9 - 0.0 - Mostly clear 10 - - - -
22/01:00pm 27.4 NE 12 17 1016.3 - 0.0 - Mostly clear 10 - - - -
22/12:30pm 26.6 ENE 11 15 1016.8 - 0.0 - Mostly clear 10 - - - -
22/12:00pm 26.4 ENE 11 14 1017.1 F 0.0 - Mostly clear 10 - - - -
22/11:30am 26.9 ENE 8 11 1017.5 - 0.0 - Mostly clear 10 - - - -
22/11:00am 26.2 E 7 9 1017.9 - 0.0 - Mostly clear 10 - - - -
22/10:30am 25.4 S 5 8 1018.3 - 0.0 - Mostly clear 10 - - - -
22/10:00am 25.2 SSE 7 9 1018.6 - 0.0 - Mostly clear 10 - - - -
22/09:30am 24.5 SE 9 11 1018.6 - 0.0 - Mostly clear 10 - - - -
22/09:00am 22.9 SE 9 11 1018.5 F 0.0 - Mostly clear 10 - - - -
22/08:30am 21.5 WNW 1 4 1018.5 - 0.0 - Mostly clear 10 - - - -
22/08:00am 18.7 CALM 0 4 1018.6 - 0.0 - Mostly clear 10 - - - -
22/07:30am 16.9 WNW 4 4 1018.6 - 0.0 - Mostly clear 10 - - - -
22/07:00am 16.0 W 5 6 1018.3 - 0.0 - Mostly clear 10 - - - -
22/06:30am 15.0 WSW 4 6 1018.0 - 0.0 - Mostly clear 10 - - - -
22/06:00am 15.0 CALM 0 0 1017.7 S 0.0 - Mostly clear 10 - - - -
22/05:30am 14.8 CALM 0 0 1017.5 - 0.0 - Mostly clear 10 - - - -
22/05:00am 15.0 WNW 4 4 1017.3 - 0.0 - Mostly clear 10 - - - -
22/04:30am 15.0 W 3 5 1017.3 - 0.0 - Mostly clear 10 - - - -
22/04:00am 15.0 CALM 0 0 1017.2 - 0.0 - Mostly clear 10 - - - -
22/03:30am 15.5 W 3 4 1017.3 - 0.0 - Mostly clear 10 - - - -
22/03:00am 15.5 SSE 1 5 1017.4 F 0.0 - Mostly clear 10 - - - -
22/02:30am 14.9 W 2 4 1017.5 - 0.0 - - 10 - - - -
22/02:00am 16.4 W 4 5 1017.8 - 0.0 - - 10 - - - -
22/01:30am 17.5 SE 10 13 1018.1 - 0.0 - - 10 - - - -
22/01:00am 17.0 SW 3 6 1018.6 - 0.0 - Mostly clear 10 - - - -
22/12:30am 17.4 SSE 7 9 1018.9 - 0.0 - Mostly clear 10 - - - -
22/12:00am 18.1 SE 9 11 1019.0 F 0.0 - Mostly clear 10 - - - -
 
Date/Time
EST
Temp
°C
Wind Pressure Rain since
9am
mm
Weather Cloud Vis
km
Sea
Height
m
Swell
Dir  Spd
kts
Gust
kts
hPa Trend Height
m
Period
s
Dir
21/11:30pm 18.3 SE 9 11 1019.2 - 0.0 - Mostly clear 10 - - - -
21/11:00pm 18.5 SE 8 10 1019.3 - 0.0 - - 10 - - - -
21/10:30pm 18.9 SE 8 9 1019.4 - 0.0 - Mostly clear 10 - - - -
21/10:00pm 19.8 SSE 6 8 1019.4 - 0.0 - Mostly clear 10 - - - -
21/09:30pm 20.4 S 7 10 1019.2 - 0.0 - Mostly clear 10 - - - -
21/09:00pm 20.5 S 6 9 1019.2 R 0.0 - Mostly clear 10 - - - -
21/08:30pm 20.4 S 6 9 1019.0 - 0.0 - Mostly clear 10 - - - -
21/08:00pm 19.6 SSE 7 9 1018.6 - 0.0 - - 10 - - - -
21/07:30pm 20.3 SSE 6 8 1018.1 - 0.0 - - 10 - - - -
21/07:00pm 20.2 SSE 7 10 1017.9 - 0.0 - Mostly clear 10 - - - -
21/06:30pm 21.1 SE 11 14 1017.4 - 0.0 - Mostly clear 10 - - - -
21/06:00pm 21.5 SE 9 12 1017.0 R 0.0 - Mostly clear 10 - - - -
21/05:30pm 22.5 SE 11 15 1016.7 - 0.0 - - 9 - - - -
21/05:00pm 23.4 ESE 13 18 1016.4 - 0.0 - Mostly clear 9 - - - -
21/04:30pm 23.9 SE 17 21 1016.1 - 0.0 - Mostly clear 9 - - - -
21/04:00pm 24.4 SE 17 21 1015.7 - 0.0 - Mostly clear 8 - - - -
21/03:30pm 24.5 ESE 15 20 1015.8 - 0.0 - Mostly clear 9 - - - -
21/03:00pm 25.2 ESE 14 17 1015.7 R 0.0 - Mostly clear 10 - - - -
21/02:30pm 25.5 ESE 13 18 1015.8 - 0.0 - Mostly clear 10 - - - -
21/02:00pm 25.0 ESE 13 18 1016.1 - 0.0 - Partly cloudy 10 - - - -
21/01:30pm 24.8 ESE 15 18 1016.5 - 0.0 - Partly cloudy 10 - - - -
21/01:00pm 25.2 ESE 16 20 1016.8 - 0.0 - Partly cloudy 10 - - - -
21/12:30pm 26.2 ESE 14 19 1017.1 - 0.0 - Partly cloudy 10 - - - -
21/12:00pm 25.5 SE 13 17 1017.7 F 0.0 - Mostly clear 10 - - - -
21/11:30am 25.7 ESE 11 14 1018.2 - 0.0 - Partly cloudy 10 - - - -
21/11:00am 24.9 SE 13 17 1018.6 - 0.0 - Partly cloudy 10 - - - -
21/10:30am 23.8 SSE 13 20 1018.9 - 0.0 - Mostly clear 10 - - - -
21/10:00am 22.8 SSE 9 13 1019.1 - 0.0 - Mostly clear 10 - - - -
21/09:30am 22.5 SSE 10 14 1019.1 - 0.0 - Mostly cloudy 10 - - - -

Other Formats:

Comma delimited format used in spreadsheet applications
http://www.bom.gov.au/fwo/IDQ60701/IDQ60701.94287.axf

JavaScript Object Notation format (JSON) in row-major order
http://www.bom.gov.au/fwo/IDQ60701/IDQ60701.94287.json